Temp Hi Low Out Dew Wind Wind Wind Hi Hi Wind Heat THW THSW Rain Solar Solar Hi Solar UV UV Hi Heat Cool In In In In In In Air Wind Wind ISS Arc.
Date Time Out Temp Temp Hum Pt. Speed Dir Run Speed Dir Chill Index Index Index Bar Rain Rate Rad. Energy Rad. Index Dose UV D-D D-D Temp Hum Dew Heat EMC Density ET Samp Tx Recept Int.
------------------------------------------------------------------------------------------------------------------------------------------------------------------------------------------------------------------------------------------------------------------------
5/06/26 12:10a 55.0 55.0 54.9 90 52.1 0.0 --- 0.00 0.0 --- 55.0 55.1 55.1 52.2 30.082 0.00 0.00 0 0.00 0 0.0 0.00 0.0 0.069 0.000 73.9 51 54.6 73.7 9.37 .0737 0.000 201 7 100.0 10
5/06/26 12:20a 55.1 55.1 54.9 90 52.2 0.0 --- 0.00 0.0 --- 55.1 55.2 55.2 52.3 30.086 0.00 0.00 0 0.00 0 0.0 0.00 0.0 0.069 0.000 73.9 51 54.6 73.7 9.37 .0737 0.000 205 7 100.0 10
5/06/26 12:30a 55.1 55.1 55.0 90 52.2 0.0 --- 0.00 0.0 --- 55.1 55.2 55.2 52.3 30.088 0.00 0.00 0 0.00 0 0.0 0.00 0.0 0.069 0.000 73.8 51 54.5 73.6 9.37 .0737 0.000 203 7 100.0 10
5/06/26 12:40a 55.0 55.1 55.0 90 52.1 0.0 --- 0.00 0.0 --- 55.0 55.1 55.1 52.2 30.091 0.00 0.00 0 0.00 0 0.0 0.00 0.0 0.069 0.000 73.8 51 54.5 73.6 9.37 .0737 0.000 202 7 100.0 10
5/06/26 12:50a 54.8 55.1 54.8 90 51.9 0.0 --- 0.00 0.0 --- 54.8 54.9 54.9 52.0 30.095 0.00 0.00 0 0.00 0 0.0 0.00 0.0 0.071 0.000 73.8 51 54.5 73.6 9.37 .0738 0.000 204 7 100.0 10
5/06/26 1:00a 54.8 54.9 54.8 90 51.9 0.0 --- 0.00 0.0 --- 54.8 54.9 54.9 52.0 30.099 0.00 0.00 0 0.00 0 0.0 0.00 0.0 0.071 0.000 73.7 51 54.4 73.4 9.38 .0738 0.000 202 7 100.0 10
5/06/26 1:10a 54.9 55.0 54.8 90 52.0 0.0 --- 0.00 0.0 --- 54.9 55.0 55.0 52.1 30.100 0.00 0.00 0 0.00 0 0.0 0.00 0.0 0.070 0.000 73.7 51 54.4 73.4 9.38 .0738 0.000 203 7 100.0 10
5/06/26 1:20a 54.8 55.0 54.8 90 51.9 0.0 --- 0.00 0.0 --- 54.8 54.9 54.9 52.0 30.102 0.00 0.00 0 0.00 0 0.0 0.00 0.0 0.071 0.000 73.6 51 54.4 73.3 9.38 .0738 0.000 203 7 100.0 10
5/06/26 1:30a 54.7 54.8 54.7 90 51.8 2.0 ENE 0.33 4.0 N 54.7 54.8 54.8 51.9 30.105 0.00 0.00 0 0.00 0 0.0 0.00 0.0 0.072 0.000 73.6 51 54.4 73.3 9.38 .0738 0.000 204 7 100.0 10
5/06/26 1:40a 54.6 54.7 54.6 90 51.7 1.0 N 0.17 3.0 N 54.6 54.7 54.7 51.8 30.107 0.00 0.00 0 0.00 0 0.0 0.00 0.0 0.072 0.000 73.6 50 53.8 73.2 9.25 .0738 0.000 203 7 100.0 10
5/06/26 1:50a 54.6 54.7 54.5 90 51.7 2.0 N 0.33 4.0 N 54.6 54.7 54.7 51.8 30.108 0.00 0.00 0 0.00 0 0.0 0.00 0.0 0.072 0.000 73.5 50 53.7 73.1 9.25 .0739 0.000 200 7 100.0 10
5/06/26 2:00a 54.5 54.7 54.5 90 51.6 2.0 N 0.33 3.0 N 54.5 54.6 54.6 51.7 30.109 0.00 0.00 0 0.00 0 0.0 0.00 0.0 0.073 0.000 73.5 50 53.7 73.1 9.25 .0739 0.000 204 7 100.0 10
5/06/26 2:10a 54.4 54.6 54.4 90 51.5 3.0 WSW 0.50 7.0 SSE 54.4 54.5 54.5 51.6 30.111 0.00 0.00 0 0.00 0 0.0 0.00 0.0 0.074 0.000 73.5 50 53.7 73.1 9.25 .0739 0.000 203 7 100.0 10
5/06/26 2:20a 54.3 54.4 54.3 90 51.4 3.0 SW 0.50 5.0 WSW 54.3 54.4 54.4 51.5 30.112 0.00 0.00 0 0.00 0 0.0 0.00 0.0 0.074 0.000 73.4 50 53.6 73.0 9.25 .0739 0.000 202 7 100.0 10
5/06/26 2:30a 54.2 54.3 54.2 90 51.3 2.0 W 0.33 6.0 W 54.2 54.3 54.3 51.4 30.114 0.00 0.00 0 0.00 0 0.0 0.00 0.0 0.075 0.000 73.4 50 53.6 73.0 9.25 .0739 0.000 201 7 100.0 10
5/06/26 2:40a 54.3 54.3 54.2 90 51.4 0.0 W 0.00 1.0 W 54.3 54.4 54.4 51.5 30.116 0.00 0.00 0 0.00 0 0.0 0.00 0.0 0.074 0.000 73.4 50 53.6 73.0 9.25 .0739 0.000 203 7 100.0 10
5/06/26 2:50a 54.2 54.3 54.2 90 51.3 0.0 W 0.00 2.0 W 54.2 54.3 54.3 51.4 30.118 0.00 0.00 0 0.00 0 0.0 0.00 0.0 0.075 0.000 73.3 50 53.5 72.9 9.25 .0739 0.000 200 7 100.0 10
5/06/26 3:00a 54.2 54.3 54.1 90 51.3 3.0 W 0.50 6.0 W 54.2 54.3 54.3 51.4 30.119 0.00 0.00 0 0.00 0 0.0 0.00 0.0 0.075 0.000 73.3 50 53.5 72.9 9.25 .0739 0.000 203 7 100.0 10
5/06/26 3:10a 54.1 54.2 54.0 90 51.2 2.0 W 0.33 5.0 N 54.1 54.2 54.2 51.3 30.119 0.00 0.00 0 0.00 0 0.0 0.00 0.0 0.076 0.000 73.2 50 53.4 72.7 9.25 .0739 0.000 201 7 100.0 10
5/06/26 3:20a 54.1 54.1 54.0 90 51.2 2.0 NW 0.33 6.0 WNW 54.1 54.2 54.2 51.3 30.121 0.00 0.00 0 0.00 0 0.0 0.00 0.0 0.076 0.000 73.2 50 53.4 72.7 9.25 .0739 0.000 204 7 100.0 10
5/06/26 3:30a 54.1 54.1 54.0 90 51.2 1.0 NW 0.17 3.0 NW 54.1 54.2 54.2 51.3 30.126 0.00 0.00 0 0.00 0 0.0 0.00 0.0 0.076 0.000 73.1 50 53.4 72.6 9.25 .0740 0.000 203 7 100.0 10
5/06/26 3:40a 54.0 54.1 54.0 90 51.1 2.0 NNW 0.33 5.0 NNW 54.0 54.1 54.1 51.2 30.135 0.00 0.00 0 0.00 0 0.0 0.00 0.0 0.076 0.000 73.1 50 53.4 72.6 9.25 .0740 0.000 199 7 100.0 10
5/06/26 3:50a 54.1 54.1 54.0 90 51.2 2.0 NNW 0.33 7.0 WNW 54.1 54.2 54.2 51.3 30.138 0.00 0.00 0 0.00 0 0.0 0.00 0.0 0.076 0.000 73.1 50 53.4 72.6 9.25 .0740 0.000 201 7 100.0 10
5/06/26 4:00a 53.9 54.2 53.9 90 51.0 3.0 W 0.50 7.0 WNW 53.9 54.0 54.0 51.1 30.139 0.00 0.00 0 0.00 0 0.0 0.00 0.0 0.077 0.000 73.1 50 53.4 72.6 9.25 .0740 0.000 204 7 100.0 10
5/06/26 4:10a 53.9 54.1 53.9 90 51.0 4.0 WSW 0.67 7.0 W 53.4 54.0 53.5 50.6 30.138 0.00 0.00 0 0.00 0 0.0 0.00 0.0 0.077 0.000 73.1 50 53.4 72.6 9.25 .0740 0.000 203 7 100.0 10
5/06/26 4:20a 53.8 54.0 53.8 90 50.9 3.0 WSW 0.50 6.0 W 53.8 53.9 53.9 50.9 30.140 0.00 0.00 0 0.00 0 0.0 0.00 0.0 0.078 0.000 73.0 50 53.3 72.5 9.25 .0740 0.000 202 7 100.0 10
5/06/26 4:30a 53.8 53.9 53.8 90 50.9 2.0 WSW 0.33 3.0 WSW 53.8 53.9 53.9 50.9 30.143 0.00 0.00 0 0.00 0 0.0 0.00 0.0 0.078 0.000 73.0 50 53.3 72.5 9.25 .0740 0.000 201 7 100.0 10
5/06/26 4:40a 53.9 53.9 53.8 90 51.0 0.0 WSW 0.00 1.0 WSW 53.9 54.0 54.0 51.1 30.141 0.00 0.00 0 0.00 0 0.0 0.00 0.0 0.077 0.000 72.9 50 53.2 72.4 9.25 .0741 0.000 203 7 100.0 10
5/06/26 4:50a 53.9 53.9 53.8 90 51.0 0.0 WSW 0.00 1.0 WSW 53.9 54.0 54.0 51.1 30.146 0.00 0.00 0 0.00 0 0.0 0.00 0.0 0.077 0.000 72.9 50 53.2 72.4 9.25 .0741 0.000 201 7 100.0 10
5/06/26 5:00a 54.0 54.0 53.9 90 51.1 0.0 --- 0.00 0.0 --- 54.0 54.1 54.1 51.2 30.152 0.00 0.00 0 0.00 0 0.0 0.00 0.0 0.076 0.000 72.9 50 53.2 72.4 9.25 .0741 0.000 202 7 100.0 10
5/06/26 5:10a 54.0 54.0 53.9 90 51.1 0.0 --- 0.00 0.0 --- 54.0 54.1 54.1 51.2 30.147 0.00 0.00 0 0.00 0 0.0 0.00 0.0 0.076 0.000 72.8 50 53.1 72.2 9.25 .0741 0.000 203 7 100.0 10
5/06/26 5:20a 54.0 54.0 53.9 90 51.1 0.0 ESE 0.00 1.0 WSW 54.0 54.1 54.1 51.2 30.144 0.00 0.00 0 0.00 0 0.0 0.00 0.0 0.076 0.000 72.8 50 53.1 72.2 9.25 .0741 0.000 202 7 100.0 10
5/06/26 5:30a 53.9 54.0 53.9 90 51.0 0.0 ESE 0.00 1.0 ESE 53.9 54.0 54.0 51.1 30.146 0.00 0.00 0 0.00 0 0.0 0.00 0.0 0.077 0.000 72.7 50 53.0 72.1 9.25 .0741 0.000 204 7 100.0 10
5/06/26 5:40a 53.9 54.0 53.9 90 51.0 0.0 ESE 0.00 1.0 ESE 53.9 54.0 54.0 51.1 30.146 0.00 0.00 0 0.00 0 0.0 0.00 0.0 0.077 0.000 72.7 50 53.0 72.1 9.25 .0741 0.000 201 7 100.0 10
5/06/26 5:50a 53.9 54.0 53.9 90 51.0 0.0 ESE 0.00 1.0 ESE 53.9 54.0 54.0 51.1 30.147 0.00 0.00 0 0.00 0 0.0 0.00 0.0 0.077 0.000 72.7 50 53.0 72.1 9.25 .0741 0.000 203 7 100.0 10
5/06/26 6:00a 53.9 53.9 53.8 90 51.0 0.0 ESE 0.00 2.0 ESE 53.9 54.0 54.0 51.1 30.152 0.00 0.00 0 0.00 0 0.0 0.00 0.0 0.077 0.000 72.7 50 53.0 72.1 9.25 .0741 0.000 204 7 100.0 10
5/06/26 6:10a 53.8 53.9 53.8 90 50.9 0.0 ESE 0.00 2.0 ESE 53.8 53.9 53.9 50.9 30.151 0.00 0.00 0 0.00 0 0.0 0.00 0.0 0.078 0.000 72.7 50 53.0 72.1 9.25 .0741 0.000 201 7 100.0 10
5/06/26 6:20a 53.8 53.9 53.8 90 50.9 0.0 ESE 0.00 2.0 ESE 53.8 53.9 53.9 51.0 30.154 0.00 0.00 1 0.01 5 0.0 0.00 0.0 0.078 0.000 72.7 50 53.0 72.1 9.25 .0741 0.000 202 7 100.0 10
5/06/26 6:30a 54.0 54.0 53.8 90 51.1 1.0 ESE 0.17 2.0 ESE 54.0 54.1 54.1 51.3 30.159 0.00 0.00 5 0.07 5 0.0 0.00 0.0 0.076 0.000 72.7 50 53.0 72.1 9.25 .0741 0.000 203 7 100.0 10
5/06/26 6:40a 53.9 54.0 53.9 90 51.0 2.0 SSE 0.33 4.0 SSE 53.9 54.0 54.0 51.2 30.160 0.00 0.00 7 0.10 9 0.0 0.00 0.0 0.077 0.000 72.7 50 53.0 72.1 9.25 .0741 0.000 204 7 100.0 10
5/06/26 6:50a 53.9 54.0 53.8 90 51.0 1.0 SSE 0.17 4.0 SSE 53.9 54.0 54.0 51.3 30.160 0.00 0.00 11 0.16 12 0.0 0.00 0.0 0.077 0.000 72.6 50 52.9 71.9 9.25 .0741 0.000 202 7 100.0 10
5/06/26 7:00a 53.7 53.9 53.7 90 50.8 1.0 SSE 0.17 2.0 SSE 53.7 53.8 53.8 51.1 30.169 0.00 0.00 14 0.20 16 0.0 0.00 0.0 0.078 0.000 72.7 50 53.0 72.1 9.25 .0742 0.000 203 7 100.0 10
5/06/26 7:10a 53.8 53.8 53.6 91 51.2 1.0 SSE 0.17 5.0 SSE 53.8 53.9 53.9 51.4 30.165 0.00 0.00 19 0.27 21 0.0 0.00 0.0 0.078 0.000 72.6 50 52.9 71.9 9.25 .0742 0.000 201 7 100.0 10
5/06/26 7:20a 53.6 53.8 53.6 90 50.7 3.0 SSW 0.50 6.0 WSW 53.6 53.7 53.7 51.2 30.175 0.00 0.00 23 0.33 25 0.0 0.00 0.0 0.079 0.000 72.6 50 52.9 71.9 9.25 .0742 0.000 204 7 100.0 10
5/06/26 7:30a 53.5 53.7 53.5 90 50.6 4.0 WSW 0.67 8.0 WSW 52.9 53.6 53.0 50.6 30.182 0.00 0.00 27 0.39 30 0.0 0.00 0.0 0.080 0.000 72.6 50 52.9 71.9 9.25 .0742 0.000 202 7 100.0 10
5/06/26 7:40a 53.7 53.7 53.5 90 50.8 1.0 S 0.17 3.0 S 53.7 53.8 53.8 53.5 30.179 0.00 0.00 34 0.49 37 0.0 0.00 0.0 0.078 0.000 72.6 50 52.9 71.9 9.25 .0742 0.000 202 7 100.0 10
5/06/26 7:50a 53.7 53.8 53.7 91 51.1 2.0 S 0.33 4.0 S 53.7 53.8 53.8 53.8 30.183 0.00 0.00 41 0.59 44 0.0 0.00 0.0 0.078 0.000 72.6 50 52.9 71.9 9.25 .0742 0.000 203 7 100.0 10
5/06/26 8:00a 53.7 53.8 53.6 91 51.1 2.0 SW 0.33 4.0 S 53.7 53.8 53.8 54.0 30.177 0.00 0.00 45 0.65 51 0.0 0.00 0.0 0.078 0.000 72.6 50 52.9 71.9 9.25 .0742 0.001 204 7 100.0 10
5/06/26 8:10a 53.7 53.7 53.6 90 50.8 1.0 SW 0.17 4.0 S 53.7 53.8 53.8 54.6 30.177 0.00 0.00 61 0.87 65 0.0 0.00 0.0 0.078 0.000 72.5 50 52.8 71.8 9.25 .0742 0.000 204 7 100.0 10
5/06/26 8:20a 53.7 53.7 53.5 91 51.1 1.0 S 0.17 3.0 S 53.7 53.8 53.8 55.0 30.166 0.00 0.00 73 1.05 81 0.0 0.00 0.0 0.078 0.000 72.6 50 52.9 71.9 9.25 .0742 0.000 203 7 100.0 10
5/06/26 8:30a 53.7 53.8 53.6 91 51.1 3.0 S 0.50 5.0 SSE 53.7 53.8 53.8 55.4 30.173 0.00 0.00 85 1.22 88 0.0 0.00 0.0 0.078 0.000 72.6 50 52.9 71.9 9.25 .0742 0.000 203 7 100.0 10
5/06/26 8:40a 53.5 53.7 53.5 91 50.9 4.0 SW 0.67 7.0 WSW 52.9 53.6 53.0 54.1 30.176 0.00 0.00 75 1.08 84 0.0 0.00 0.0 0.080 0.000 72.6 50 52.9 71.9 9.25 .0742 0.000 204 7 100.0 10
5/06/26 8:50a 53.6 53.6 53.5 91 51.0 4.0 S 0.67 6.0 SSE 53.0 53.7 53.1 55.0 30.175 0.00 0.00 100 1.43 107 0.5 0.04 0.6 0.079 0.000 72.6 50 52.9 71.9 9.25 .0742 0.000 202 7 100.0 10
5/06/26 9:00a 53.6 53.6 53.5 91 51.0 4.0 SSW 0.67 7.0 SE 53.0 53.7 53.1 55.2 30.178 0.00 0.00 108 1.55 113 0.6 0.04 0.6 0.079 0.000 72.6 50 52.9 71.9 9.25 .0742 0.002 201 7 100.0 10
5/06/26 9:10a 53.7 53.7 53.6 91 51.1 4.0 SW 0.67 7.0 SW 53.1 53.8 53.2 54.9 30.185 0.00 0.00 100 1.43 105 0.5 0.04 0.6 0.078 0.000 72.6 50 52.9 71.9 9.25 .0742 0.000 204 7 100.0 10
5/06/26 9:20a 53.6 53.7 53.5 91 51.0 5.0 SSW 0.83 7.0 SSW 52.4 53.7 52.5 54.1 30.188 0.00 0.00 101 1.45 104 0.6 0.04 0.6 0.079 0.000 72.6 50 52.9 71.9 9.25 .0742 0.000 199 7 100.0 10
5/06/26 9:30a 53.5 53.6 53.5 91 50.9 5.0 SW 0.83 9.0 WSW 52.3 53.6 52.4 53.8 30.195 0.00 0.00 100 1.43 105 0.6 0.04 0.6 0.080 0.000 72.5 50 52.8 71.8 9.25 .0743 0.000 201 7 100.0 10
5/06/26 9:40a 53.3 53.5 53.2 91 50.7 5.0 WSW 0.83 8.0 WSW 52.1 53.4 52.2 53.9 30.198 0.00 0.00 112 1.61 118 0.7 0.05 0.7 0.081 0.000 72.5 50 52.8 71.8 9.25 .0743 0.000 203 7 100.0 10
5/06/26 9:50a 53.4 53.4 53.3 92 51.1 4.0 WSW 0.67 7.0 WSW 52.8 53.6 53.0 54.7 30.203 0.00 0.00 115 1.65 118 0.7 0.05 0.8 0.081 0.000 72.5 50 52.8 71.8 9.25 .0743 0.000 205 7 100.0 10
5/06/26 10:00a 53.5 53.5 53.3 92 51.2 4.0 SSW 0.67 9.0 WSW 52.9 53.7 53.1 54.9 30.200 0.00 0.00 120 1.72 127 0.8 0.06 0.8 0.080 0.000 72.5 50 52.8 71.8 9.25 .0743 0.002 201 7 100.0 10
5/06/26 10:10a 53.5 53.6 53.5 91 50.9 4.0 SW 0.67 6.0 SSW 52.9 53.6 53.0 55.3 30.201 0.00 0.00 142 2.04 155 1.0 0.07 1.1 0.080 0.000 72.5 50 52.8 71.8 9.25 .0743 0.000 199 7 100.0 10
5/06/26 10:20a 53.5 53.7 53.5 91 50.9 3.0 SSE 0.50 6.0 SSW 53.5 53.6 53.6 56.4 30.201 0.00 0.00 164 2.35 174 1.1 0.08 1.2 0.080 0.000 72.5 50 52.8 71.8 9.25 .0743 0.000 200 7 100.0 10
5/06/26 10:30a 53.5 53.6 53.5 91 50.9 4.0 SSW 0.67 7.0 SSE 52.9 53.6 53.0 55.3 30.204 0.00 0.00 150 2.15 158 1.1 0.08 1.1 0.080 0.000 72.6 50 52.9 71.9 9.25 .0743 0.000 203 7 100.0 10
5/06/26 10:40a 53.5 53.6 53.4 92 51.2 5.0 S 0.83 7.0 SW 52.3 53.7 52.5 54.8 30.207 0.00 0.00 152 2.18 160 1.1 0.08 1.2 0.080 0.000 72.6 50 52.9 71.9 9.25 .0743 0.000 201 7 100.0 10
5/06/26 10:50a 53.5 53.6 53.5 92 51.2 4.0 SSW 0.67 7.0 SSE 52.9 53.7 53.1 55.7 30.205 0.00 0.00 165 2.37 171 1.3 0.09 1.3 0.080 0.000 72.5 50 52.8 71.8 9.25 .0743 0.000 201 7 100.0 10
5/06/26 11:00a 53.5 53.6 53.5 92 51.2 3.0 S 0.50 7.0 SE 53.5 53.7 53.7 56.7 30.208 0.00 0.00 185 2.65 211 1.4 0.10 1.6 0.080 0.000 72.6 50 52.9 71.9 9.25 .0743 0.003 204 7 100.0 10
5/06/26 11:10a 53.5 53.6 53.5 92 51.2 4.0 S 0.67 6.0 SSE 52.9 53.7 53.1 56.3 30.212 0.00 0.00 194 2.78 213 1.5 0.11 1.6 0.080 0.000 72.6 50 52.9 71.9 9.25 .0743 0.000 204 7 100.0 10
5/06/26 11:20a 53.5 53.5 53.4 92 51.2 3.0 SSW 0.50 6.0 S 53.5 53.7 53.7 57.2 30.214 0.00 0.00 211 3.02 225 1.7 0.12 1.8 0.080 0.000 72.6 50 52.9 71.9 9.25 .0743 0.000 203 7 100.0 10
5/06/26 11:30a 53.5 53.5 53.4 92 51.2 3.0 SSW 0.50 6.0 SSE 53.5 53.7 53.7 57.4 30.213 0.00 0.00 221 3.17 234 1.8 0.13 1.9 0.080 0.000 72.7 50 53.0 72.1 9.25 .0743 0.000 203 7 100.0 10
5/06/26 11:40a 53.5 53.5 53.4 92 51.2 4.0 S 0.67 8.0 SSE 52.9 53.7 53.1 56.6 30.213 0.00 0.00 215 3.08 230 1.8 0.13 1.9 0.080 0.000 72.7 50 53.0 72.1 9.25 .0743 0.000 202 7 100.0 10
5/06/26 11:50a 53.5 53.7 53.5 92 51.2 5.0 SSW 0.83 8.0 SE 52.3 53.7 52.5 56.6 30.218 0.00 0.00 243 3.48 253 2.0 0.14 2.1 0.080 0.000 72.8 50 53.1 72.2 9.25 .0743 0.000 202 7 100.0 10
5/06/26 12:00p 53.4 53.6 53.4 92 51.1 4.0 S 0.67 7.0 SE 52.8 53.6 53.0 57.6 30.220 0.00 0.00 268 3.84 278 2.2 0.16 2.3 0.081 0.000 72.8 50 53.1 72.2 9.25 .0743 0.004 202 7 100.0 10
5/06/26 12:10p 53.5 53.5 53.3 92 51.2 4.0 S 0.67 6.0 ESE 52.9 53.7 53.1 57.7 30.220 0.00 0.00 267 3.83 283 2.2 0.16 2.3 0.080 0.000 72.8 50 53.1 72.2 9.25 .0743 0.000 203 7 100.0 10
5/06/26 12:20p 53.5 53.5 53.4 92 51.2 4.0 SSW 0.67 6.0 S 52.9 53.7 53.1 57.5 30.219 0.00 0.00 261 3.74 272 2.2 0.16 2.3 0.080 0.000 72.8 50 53.1 72.2 9.25 .0743 0.000 203 7 100.0 10
5/06/26 12:30p 53.7 53.7 53.4 92 51.4 3.0 SSW 0.50 5.0 SSW 53.7 53.9 53.9 58.3 30.223 0.00 0.00 263 3.77 274 2.2 0.16 2.3 0.078 0.000 72.9 50 53.2 72.4 9.25 .0743 0.000 203 7 100.0 10
5/06/26 12:40p 53.7 53.8 53.6 92 51.4 3.0 SSW 0.50 5.0 SSE 53.7 53.9 53.9 58.5 30.223 0.00 0.00 274 3.93 279 2.3 0.16 2.4 0.078 0.000 72.9 50 53.2 72.4 9.25 .0743 0.000 202 7 100.0 10
5/06/26 12:50p 53.8 53.8 53.6 92 51.5 3.0 SSE 0.50 5.0 SE 53.8 53.9 53.9 58.7 30.224 0.00 0.00 284 4.07 292 2.5 0.18 2.5 0.078 0.000 72.9 50 53.2 72.4 9.25 .0743 0.000 203 7 100.0 10
5/06/26 1:00p 53.8 53.9 53.7 92 51.5 2.0 SSE 0.33 4.0 S 53.8 53.9 53.9 58.7 30.224 0.00 0.00 281 4.03 288 2.5 0.18 2.5 0.078 0.000 72.9 50 53.2 72.4 9.25 .0743 0.005 204 7 100.0 10
5/06/26 1:10p 54.1 54.1 53.7 92 51.8 3.0 SW 0.50 4.0 SSW 54.1 54.2 54.2 59.4 30.222 0.00 0.00 300 4.30 316 2.6 0.19 2.7 0.076 0.000 73.0 50 53.3 72.5 9.25 .0742 0.000 204 7 100.0 10
5/06/26 1:20p 54.1 54.1 54.0 92 51.8 2.0 SW 0.33 4.0 SW 54.1 54.2 54.2 59.9 30.223 0.00 0.00 323 4.63 343 2.8 0.20 2.9 0.076 0.000 73.1 50 53.4 72.6 9.25 .0742 0.000 200 7 100.0 10
5/06/26 1:30p 54.2 54.2 54.0 92 51.9 2.0 SW 0.33 4.0 SSE 54.2 54.3 54.3 60.5 30.224 0.00 0.00 349 5.00 352 3.0 0.21 3.0 0.075 0.000 73.1 50 53.4 72.6 9.25 .0742 0.000 199 7 100.0 10
5/06/26 1:40p 54.2 54.2 54.1 92 51.9 2.0 SW 0.33 4.0 SW 54.2 54.3 54.3 60.3 30.225 0.00 0.00 337 4.83 345 2.9 0.21 3.0 0.075 0.000 73.2 50 53.4 72.7 9.25 .0742 0.000 203 7 100.0 10
5/06/26 1:50p 54.4 54.4 54.2 91 51.8 3.0 S 0.50 5.0 SSE 54.4 54.5 54.5 60.9 30.226 0.00 0.00 356 5.10 364 3.0 0.21 3.1 0.074 0.000 73.2 50 53.4 72.7 9.25 .0742 0.000 201 7 100.0 10
5/06/26 2:00p 54.3 54.3 54.2 91 51.7 3.0 S 0.50 5.0 SSE 54.3 54.4 54.4 60.8 30.225 0.00 0.00 356 5.10 360 3.0 0.21 3.1 0.074 0.000 73.3 50 53.5 72.9 9.25 .0742 0.007 201 7 100.0 10
5/06/26 2:10p 54.3 54.4 54.2 91 51.7 3.0 S 0.50 5.0 SSE 54.3 54.4 54.4 60.9 30.225 0.00 0.00 359 5.15 364 3.0 0.21 3.0 0.074 0.000 73.3 50 53.5 72.9 9.25 .0742 0.000 204 7 100.0 10
5/06/26 2:20p 54.5 54.5 54.3 91 51.9 3.0 S 0.50 5.0 S 54.5 54.6 54.6 61.5 30.227 0.00 0.00 381 5.46 397 3.1 0.22 3.2 0.073 0.000 73.4 50 53.6 73.0 9.25 .0742 0.000 204 7 100.0 10
5/06/26 2:30p 54.6 54.6 54.4 91 52.0 3.0 SSW 0.50 5.0 SSE 54.6 54.7 54.7 62.3 30.228 0.00 0.00 414 5.93 427 3.3 0.24 3.4 0.072 0.000 73.4 50 53.6 73.0 9.25 .0742 0.000 202 7 100.0 10
5/06/26 2:40p 54.8 54.8 54.5 91 52.2 3.0 SSW 0.50 4.0 SSW 54.8 54.9 54.9 62.9 30.227 0.00 0.00 432 6.19 438 3.4 0.24 3.4 0.071 0.000 73.5 50 53.7 73.1 9.25 .0742 0.000 200 7 100.0 10
5/06/26 2:50p 54.7 54.8 54.7 91 52.1 3.0 S 0.50 5.0 S 54.7 54.8 54.8 63.0 30.226 0.00 0.00 442 6.34 457 3.4 0.24 3.5 0.072 0.000 73.6 50 53.8 73.2 9.25 .0741 0.000 203 7 100.0 10
5/06/26 3:00p 54.7 54.8 54.6 91 52.1 3.0 S 0.50 6.0 S 54.7 54.8 54.8 62.6 30.230 0.00 0.00 414 5.93 466 3.2 0.23 3.6 0.072 0.000 73.6 50 53.8 73.2 9.25 .0742 0.008 203 7 100.0 10
5/06/26 3:10p 54.7 54.7 54.6 91 52.1 4.0 SW 0.67 7.0 WSW 54.3 54.8 54.4 61.3 30.232 0.00 0.00 361 5.18 380 2.8 0.20 2.9 0.072 0.000 73.6 50 53.8 73.2 9.25 .0742 0.000 202 7 100.0 10
5/06/26 3:20p 54.0 54.6 54.0 91 51.4 5.0 WSW 0.83 7.0 WSW 52.9 54.1 53.0 59.5 30.231 0.00 0.00 339 4.86 350 2.6 0.19 2.7 0.076 0.000 73.7 50 53.9 73.3 9.25 .0741 0.000 204 7 100.0 10
5/06/26 3:30p 53.9 54.1 53.9 91 51.3 5.0 WSW 0.83 7.0 WSW 52.8 54.0 52.9 58.9 30.228 0.00 0.00 309 4.43 327 2.3 0.16 2.5 0.077 0.000 73.7 50 53.9 73.3 9.25 .0741 0.000 204 7 100.0 10
5/06/26 3:40p 54.0 54.1 53.8 91 51.4 5.0 WSW 0.83 7.0 WSW 52.9 54.1 53.0 58.7 30.225 0.00 0.00 293 4.20 304 2.1 0.15 2.2 0.076 0.000 73.8 50 54.0 73.5 9.25 .0741 0.000 204 7 100.0 10
5/06/26 3:50p 53.8 54.0 53.8 91 51.2 5.0 WSW 0.83 7.0 WSW 52.7 53.9 52.8 58.2 30.224 0.00 0.00 273 3.91 279 1.9 0.14 2.0 0.078 0.000 73.8 50 54.0 73.5 9.25 .0741 0.000 204 7 100.0 10
5/06/26 4:00p 53.8 53.8 53.6 91 51.2 5.0 WSW 0.83 7.0 WSW 52.7 53.9 52.8 57.3 30.223 0.00 0.00 236 3.38 255 1.6 0.11 1.8 0.078 0.000 73.8 50 54.0 73.5 9.25 .0741 0.006 204 7 100.0 10
5/06/26 4:10p 53.7 53.9 53.7 91 51.1 5.0 W 0.83 7.0 WSW 52.5 53.8 52.6 55.8 30.221 0.00 0.00 181 2.59 192 1.3 0.09 1.3 0.078 0.000 73.9 50 54.1 73.6 9.25 .0741 0.000 203 7 100.0 10
5/06/26 4:20p 53.7 53.8 53.5 91 51.1 4.0 W 0.67 7.0 W 53.1 53.8 53.2 56.1 30.220 0.00 0.00 164 2.35 172 1.1 0.08 1.2 0.078 0.000 73.9 50 54.1 73.6 9.25 .0741 0.000 201 7 100.0 10
5/06/26 4:30p 54.0 54.1 53.7 91 51.4 2.0 WNW 0.33 4.0 W 54.0 54.1 54.1 56.7 30.221 0.00 0.00 149 2.14 163 1.0 0.07 1.1 0.076 0.000 73.9 50 54.1 73.6 9.25 .0741 0.000 203 7 100.0 10
5/06/26 4:40p 53.8 54.1 53.8 91 51.2 3.0 WSW 0.50 4.0 WNW 53.8 53.9 53.9 57.1 30.221 0.00 0.00 168 2.41 178 1.1 0.08 1.1 0.078 0.000 73.9 50 54.1 73.6 9.25 .0741 0.000 202 7 100.0 10
5/06/26 4:50p 54.0 54.0 53.8 92 51.7 2.0 W 0.33 3.0 WSW 54.0 54.1 54.1 57.7 30.219 0.00 0.00 177 2.54 190 1.1 0.08 1.1 0.076 0.000 73.9 50 54.1 73.6 9.25 .0741 0.000 205 7 100.0 10
5/06/26 5:00p 54.1 54.1 53.9 92 51.8 2.0 W 0.33 3.0 W 54.1 54.2 54.2 57.5 30.217 0.00 0.00 161 2.31 190 0.9 0.06 1.1 0.076 0.000 73.9 50 54.1 73.6 9.25 .0741 0.003 199 7 100.0 10
5/06/26 5:10p 54.2 54.2 54.0 92 51.9 2.0 W 0.33 3.0 W 54.2 54.3 54.3 57.4 30.218 0.00 0.00 150 2.15 156 0.8 0.06 0.9 0.075 0.000 73.9 51 54.6 73.7 9.37 .0740 0.000 198 7 100.0 10
5/06/26 5:20p 54.2 54.2 54.1 92 51.9 1.0 NNW 0.17 3.0 NNW 54.2 54.3 54.3 57.9 30.215 0.00 0.00 160 2.29 163 0.9 0.06 0.9 0.075 0.000 74.0 51 54.7 73.8 9.37 .0740 0.000 203 7 100.0 10
5/06/26 5:30p 54.3 54.3 54.2 92 52.0 1.0 NNW 0.17 3.0 NNW 54.3 54.4 54.4 57.9 30.215 0.00 0.00 151 2.16 162 0.8 0.06 0.8 0.074 0.000 74.0 51 54.7 73.8 9.37 .0740 0.000 205 7 100.0 10
5/06/26 5:40p 54.4 54.4 54.2 92 52.1 2.0 NNW 0.33 3.0 NNW 54.4 54.5 54.5 58.0 30.211 0.00 0.00 145 2.08 149 0.7 0.05 0.7 0.074 0.000 74.0 51 54.7 73.8 9.37 .0740 0.000 202 7 100.0 10
5/06/26 5:50p 54.3 54.5 54.3 91 51.7 1.0 NNW 0.17 3.0 NNW 54.3 54.4 54.4 57.5 30.212 0.00 0.00 131 1.88 142 0.6 0.04 0.7 0.074 0.000 74.0 51 54.7 73.8 9.37 .0740 0.000 200 7 100.0 10
5/06/26 6:00p 54.4 54.5 54.3 91 51.8 1.0 NNW 0.17 3.0 NNW 54.4 54.5 54.5 57.1 30.211 0.00 0.00 114 1.63 121 0.5 0.04 0.5 0.074 0.000 73.9 51 54.6 73.7 9.37 .0740 0.003 203 7 100.0 10
5/06/26 6:10p 54.5 54.5 54.4 91 51.9 2.0 NNW 0.33 3.0 NNW 54.5 54.6 54.6 56.8 30.211 0.00 0.00 100 1.43 104 0.0 0.00 0.0 0.073 0.000 74.0 51 54.7 73.8 9.37 .0740 0.000 204 7 100.0 10
5/06/26 6:20p 54.5 54.6 54.4 91 51.9 1.0 NNW 0.17 2.0 NNW 54.5 54.6 54.6 56.1 30.209 0.00 0.00 80 1.15 91 0.0 0.00 0.0 0.073 0.000 73.9 51 54.6 73.7 9.37 .0740 0.000 204 7 100.0 10
5/06/26 6:30p 54.6 54.6 54.5 91 52.0 1.0 NNW 0.17 2.0 NNW 54.6 54.7 54.7 55.9 30.209 0.00 0.00 68 0.97 69 0.0 0.00 0.0 0.072 0.000 73.9 51 54.6 73.7 9.37 .0740 0.000 204 7 100.0 10
5/06/26 6:40p 54.6 54.7 54.5 91 52.0 1.0 NNW 0.17 3.0 NNW 54.6 54.7 54.7 55.7 30.209 0.00 0.00 63 0.90 69 0.0 0.00 0.0 0.072 0.000 73.9 51 54.6 73.7 9.37 .0740 0.000 202 7 100.0 10
5/06/26 6:50p 54.7 54.7 54.6 91 52.1 1.0 NNW 0.17 2.0 NNW 54.7 54.8 54.8 55.5 30.205 0.00 0.00 56 0.80 58 0.0 0.00 0.0 0.072 0.000 73.9 51 54.6 73.7 9.37 .0740 0.000 202 7 100.0 10
5/06/26 7:00p 54.7 54.8 54.6 91 52.1 1.0 NNW 0.17 4.0 NNW 54.7 54.8 54.8 53.5 30.203 0.00 0.00 55 0.79 58 0.0 0.00 0.0 0.072 0.000 73.8 51 54.5 73.6 9.37 .0740 0.001 204 7 100.0 10
5/06/26 7:10p 54.6 54.7 54.6 91 52.0 2.0 NNW 0.33 3.0 NNW 54.6 54.7 54.7 53.4 30.200 0.00 0.00 53 0.76 54 0.0 0.00 0.0 0.072 0.000 73.8 51 54.5 73.6 9.37 .0740 0.000 201 7 100.0 10
5/06/26 7:20p 54.6 54.7 54.6 91 52.0 2.0 NNW 0.33 3.0 NNW 54.6 54.7 54.7 53.2 30.200 0.00 0.00 44 0.63 47 0.0 0.00 0.0 0.072 0.000 73.8 51 54.5 73.6 9.37 .0740 0.000 204 7 100.0 10
5/06/26 7:30p 54.6 54.7 54.6 91 52.0 2.0 NNW 0.33 3.0 NNW 54.6 54.7 54.7 52.9 30.200 0.00 0.00 34 0.49 40 0.0 0.00 0.0 0.072 0.000 73.8 51 54.5 73.6 9.37 .0740 0.000 203 7 100.0 10
5/06/26 7:40p 54.6 54.7 54.6 91 52.0 2.0 NNW 0.33 3.0 NNW 54.6 54.7 54.7 52.7 30.201 0.00 0.00 22 0.32 26 0.0 0.00 0.0 0.072 0.000 73.7 51 54.4 73.4 9.38 .0740 0.000 202 7 100.0 10
5/06/26 7:50p 54.5 54.6 54.5 91 51.9 2.0 NNW 0.33 3.0 NNW 54.5 54.6 54.6 52.3 30.201 0.00 0.00 13 0.19 16 0.0 0.00 0.0 0.073 0.000 73.7 51 54.4 73.4 9.38 .0740 0.000 204 7 100.0 10
5/06/26 8:00p 54.5 54.5 54.4 91 51.9 1.0 NNE 0.17 3.0 NNE 54.5 54.6 54.6 52.2 30.202 0.00 0.00 10 0.14 12 0.0 0.00 0.0 0.073 0.000 73.6 51 54.4 73.3 9.38 .0741 0.001 204 7 100.0 10
5/06/26 8:10p 54.4 54.5 54.4 91 51.8 2.0 NNE 0.33 3.0 NNE 54.4 54.5 54.5 52.0 30.204 0.00 0.00 5 0.07 7 0.0 0.00 0.0 0.074 0.000 73.6 51 54.4 73.3 9.38 .0741 0.000 203 7 100.0 10
5/06/26 8:20p 54.3 54.4 54.3 91 51.7 2.0 NNE 0.33 3.0 NNE 54.3 54.4 54.4 51.8 30.205 0.00 0.00 0 0.00 0 0.0 0.00 0.0 0.074 0.000 73.6 51 54.4 73.3 9.38 .0741 0.000 203 7 100.0 10
5/06/26 8:30p 54.4 54.5 54.3 91 51.8 2.0 NNE 0.33 4.0 NNE 54.4 54.5 54.5 51.9 30.206 0.00 0.00 0 0.00 0 0.0 0.00 0.0 0.074 0.000 73.5 51 54.3 73.2 9.38 .0741 0.000 202 7 100.0 10
5/06/26 8:40p 54.3 54.4 54.3 91 51.7 1.0 NNE 0.17 4.0 NNE 54.3 54.4 54.4 51.8 30.205 0.00 0.00 0 0.00 0 0.0 0.00 0.0 0.074 0.000 73.5 51 54.3 73.2 9.38 .0741 0.000 203 7 100.0 10
5/06/26 8:50p 54.3 54.3 54.3 91 51.7 2.0 N 0.33 4.0 N 54.3 54.4 54.4 51.8 30.205 0.00 0.00 0 0.00 0 0.0 0.00 0.0 0.074 0.000 73.5 51 54.3 73.2 9.38 .0741 0.000 203 7 100.0 10
5/06/26 9:00p 54.4 54.4 54.2 91 51.8 2.0 N 0.33 4.0 NNW 54.4 54.5 54.5 51.9 30.206 0.00 0.00 0 0.00 0 0.0 0.00 0.0 0.074 0.000 73.4 51 54.2 73.1 9.38 .0741 0.000 204 7 100.0 10
5/06/26 9:10p 54.4 54.4 54.3 92 52.1 2.0 NNE 0.33 3.0 NNE 54.4 54.5 54.5 51.9 30.206 0.00 0.00 0 0.00 0 0.0 0.00 0.0 0.074 0.000 73.4 51 54.2 73.1 9.38 .0741 0.000 204 7 100.0 10
5/06/26 9:20p 54.4 54.4 54.3 92 52.1 2.0 NNE 0.33 4.0 NNE 54.4 54.5 54.5 51.9 30.207 0.00 0.00 0 0.00 0 0.0 0.00 0.0 0.074 0.000 73.3 51 54.1 73.0 9.38 .0741 0.000 203 7 100.0 10
5/06/26 9:30p 54.3 54.4 54.3 92 52.0 2.0 NNE 0.33 4.0 NNE 54.3 54.4 54.4 51.8 30.206 0.00 0.00 0 0.00 0 0.0 0.00 0.0 0.074 0.000 73.3 51 54.1 73.0 9.38 .0741 0.000 202 7 100.0 10
5/06/26 9:40p 54.3 54.4 54.3 92 52.0 1.0 NNE 0.17 3.0 NNE 54.3 54.4 54.4 51.8 30.209 0.00 0.00 0 0.00 0 0.0 0.00 0.0 0.074 0.000 73.3 50 53.5 72.9 9.25 .0742 0.000 203 7 100.0 10
5/06/26 9:50p 54.3 54.4 54.3 92 52.0 1.0 NNE 0.17 2.0 NNE 54.3 54.4 54.4 51.8 30.210 0.00 0.00 0 0.00 0 0.0 0.00 0.0 0.074 0.000 73.2 50 53.4 72.7 9.25 .0742 0.000 204 7 100.0 10
5/06/26 10:00p 54.3 54.3 54.2 92 52.0 1.0 NNE 0.17 3.0 NNE 54.3 54.4 54.4 51.8 30.209 0.00 0.00 0 0.00 0 0.0 0.00 0.0 0.074 0.000 73.2 50 53.4 72.7 9.25 .0742 0.000 203 7 100.0 10
5/06/26 10:10p 54.3 54.3 54.3 92 52.0 1.0 NNE 0.17 4.0 NNE 54.3 54.4 54.4 51.8 30.207 0.00 0.00 0 0.00 0 0.0 0.00 0.0 0.074 0.000 73.1 50 53.4 72.6 9.25 .0742 0.000 203 7 100.0 10
5/06/26 10:20p 54.2 54.3 54.2 92 51.9 1.0 NNE 0.17 3.0 NNE 54.2 54.3 54.3 51.7 30.209 0.00 0.00 0 0.00 0 0.0 0.00 0.0 0.075 0.000 73.1 50 53.4 72.6 9.25 .0742 0.000 204 7 100.0 10
5/06/26 10:30p 54.1 54.2 54.1 92 51.8 1.0 NNE 0.17 3.0 NNE 54.1 54.2 54.2 51.6 30.206 0.00 0.00 0 0.00 0 0.0 0.00 0.0 0.076 0.000 73.1 50 53.4 72.6 9.25 .0742 0.000 201 7 100.0 10
5/06/26 10:40p 53.9 54.1 53.9 91 51.3 1.0 NNE 0.17 2.0 NNE 53.9 54.0 54.0 51.4 30.207 0.00 0.00 0 0.00 0 0.0 0.00 0.0 0.077 0.000 73.0 50 53.3 72.5 9.25 .0742 0.000 204 7 100.0 10
5/06/26 10:50p 53.7 53.9 53.7 91 51.1 2.0 ENE 0.33 4.0 NNE 53.7 53.8 53.8 51.2 30.204 0.00 0.00 0 0.00 0 0.0 0.00 0.0 0.078 0.000 73.0 50 53.3 72.5 9.25 .0742 0.000 202 7 100.0 10
5/06/26 11:00p 53.7 53.7 53.6 91 51.1 1.0 ENE 0.17 3.0 ENE 53.7 53.8 53.8 51.2 30.204 0.00 0.00 0 0.00 0 0.0 0.00 0.0 0.078 0.000 73.0 50 53.3 72.5 9.25 .0742 0.000 204 7 100.0 10
5/06/26 11:10p 53.7 53.7 53.6 91 51.1 1.0 ENE 0.17 4.0 ENE 53.7 53.8 53.8 51.2 30.201 0.00 0.00 0 0.00 0 0.0 0.00 0.0 0.078 0.000 72.9 50 53.2 72.4 9.25 .0742 0.000 203 7 100.0 10
5/06/26 11:20p 53.7 53.8 53.7 91 51.1 0.0 ENE 0.00 4.0 ENE 53.7 53.8 53.8 51.2 30.200 0.00 0.00 0 0.00 0 0.0 0.00 0.0 0.078 0.000 72.9 50 53.2 72.4 9.25 .0742 0.000 203 7 100.0 10
5/06/26 11:30p 54.3 54.3 53.7 92 52.0 3.0 NNE 0.50 6.0 N 54.3 54.4 54.4 51.8 30.199 0.00 0.00 0 0.00 0 0.0 0.00 0.0 0.074 0.000 72.9 50 53.2 72.4 9.25 .0742 0.000 201 7 100.0 10
5/06/26 11:40p 54.2 54.4 54.2 91 51.6 2.0 NE 0.33 6.0 ENE 54.2 54.3 54.3 51.7 30.199 0.00 0.00 0 0.00 0 0.0 0.00 0.0 0.075 0.000 72.8 50 53.1 72.2 9.25 .0742 0.000 203 7 100.0 10
5/06/26 11:50p 54.1 54.2 54.1 91 51.5 2.0 NE 0.33 4.0 NE 54.1 54.2 54.2 51.6 30.196 0.00 0.00 0 0.00 0 0.0 0.00 0.0 0.076 0.000 72.8 50 53.1 72.2 9.25 .0742 0.000 203 7 100.0 10
5/07/26 12:00a 54.1 54.2 54.0 91 51.5 2.0 NE 0.33 4.0 NE 54.1 54.2 54.2 51.6 30.197 0.00 0.00 0 0.00 0 0.0 0.00 0.0 0.076 0.000 72.7 50 53.0 72.1 9.25 .0742 0.000 199 7 100.0 10
5/07/26 12:10a 54.0 54.1 54.0 92 51.7 2.0 NE 0.33 5.0 NE 54.0 54.1 54.1 51.5 30.197 0.00 0.00 0 0.00 0 0.0 0.00 0.0 0.076 0.000 72.7 50 53.0 72.1 9.25 .0742 0.000 202 7 100.0 10
5/07/26 12:20a 54.1 54.1 54.0 91 51.5 2.0 NE 0.33 4.0 NE 54.1 54.2 54.2 51.6 30.196 0.00 0.00 0 0.00 0 0.0 0.00 0.0 0.076 0.000 72.7 50 53.0 72.1 9.25 .0742 0.000 202 7 100.0 10
5/07/26 12:30a 54.0 54.1 54.0 91 51.4 2.0 NE 0.33 4.0 NE 54.0 54.1 54.1 51.5 30.198 0.00 0.00 0 0.00 0 0.0 0.00 0.0 0.076 0.000 72.7 50 53.0 72.1 9.25 .0742 0.000 205 7 100.0 10
5/07/26 12:40a 53.9 54.0 53.9 91 51.3 2.0 NE 0.33 5.0 NE 53.9 54.0 54.0 51.4 30.194 0.00 0.00 0 0.00 0 0.0 0.00 0.0 0.077 0.000 72.6 50 52.9 71.9 9.25 .0742 0.000 202 7 100.0 10
5/07/26 12:50a 53.9 54.0 53.9 92 51.6 1.0 NE 0.17 4.0 NE 53.9 54.0 54.0 51.4 30.194 0.00 0.00 0 0.00 0 0.0 0.00 0.0 0.077 0.000 72.6 50 52.9 71.9 9.25 .0742 0.000 203 7 100.0 10
5/07/26 1:00a 53.8 53.9 53.8 92 51.5 1.0 NE 0.17 3.0 NE 53.8 53.9 53.9 51.3 30.194 0.00 0.00 0 0.00 0 0.0 0.00 0.0 0.078 0.000 72.5 50 52.8 71.8 9.25 .0743 0.000 203 7 100.0 10
5/07/26 1:10a 53.7 53.9 53.7 92 51.4 2.0 NE 0.33 4.0 NE 53.7 53.9 53.9 51.3 30.194 0.00 0.00 0 0.00 0 0.0 0.00 0.0 0.078 0.000 72.5 50 52.8 71.8 9.25 .0743 0.000 201 7 100.0 10
5/07/26 1:20a 53.6 53.7 53.6 92 51.3 2.0 NE 0.33 5.0 NE 53.6 53.8 53.8 51.2 30.192 0.00 0.00 0 0.00 0 0.0 0.00 0.0 0.079 0.000 72.5 50 52.8 71.8 9.25 .0742 0.000 204 7 100.0 10
5/07/26 1:30a 53.4 53.6 53.4 91 50.8 3.0 NE 0.50 9.0 ENE 53.4 53.5 53.5 50.9 30.191 0.00 0.00 0 0.00 0 0.0 0.00 0.0 0.081 0.000 72.5 50 52.8 71.8 9.25 .0742 0.000 203 7 100.0 10
5/07/26 1:40a 53.3 53.4 53.3 91 50.7 3.0 NE 0.50 9.0 ENE 53.3 53.4 53.4 50.8 30.191 0.00 0.00 0 0.00 0 0.0 0.00 0.0 0.081 0.000 72.4 50 52.7 71.7 9.25 .0743 0.000 204 7 100.0 10
5/07/26 1:50a 53.3 53.3 53.3 91 50.7 2.0 NE 0.33 5.0 NE 53.3 53.4 53.4 50.8 30.191 0.00 0.00 0 0.00 0 0.0 0.00 0.0 0.081 0.000 72.4 50 52.7 71.7 9.25 .0743 0.000 203 7 100.0 10